Time;durP1;ratioP1;P1;durP2;ratioP2;P2;SDS_P1;SDS_P2;PMS_P1;PMS_P2;Temp;Humidity;BMP_temperature;BMP_pressure;BME280_temperature;BME280_humidity;BME280_pressure;Samples;Min_cycle;Max_cycle;Signal;HPM_P1;HPM_P2
2023/05/11 00:01:49;;;;;;;35.20;23.48;;;12.90;99.90;;;;;;5081012;28;20411;-58
2023/05/11 00:04:16;;;;;;;32.78;22.90;;;13.00;99.90;;;;;;5083967;28;20918;-58
2023/05/11 00:06:42;;;;;;;37.70;24.55;;;13.10;99.90;;;;;;5079978;28;20472;-59
2023/05/11 00:09:10;;;;;;;38.67;25.25;;;13.10;99.90;;;;;;5084434;28;20405;-57
2023/05/11 00:11:38;;;;;;;36.70;25.13;;;13.00;99.90;;;;;;5080602;28;20422;-58
2023/05/11 00:14:05;;;;;;;38.45;26.00;;;13.10;99.90;;;;;;5080304;28;20464;-60
2023/05/11 00:16:31;;;;;;;40.43;25.80;;;13.00;99.90;;;;;;5083015;28;20488;-59
2023/05/11 00:18:58;;;;;;;42.95;26.73;;;13.00;99.90;;;;;;5080212;28;20408;-58
2023/05/11 00:21:25;;;;;;;46.35;27.98;;;12.80;99.90;;;;;;5084201;28;20406;-59
2023/05/11 00:23:51;;;;;;;43.83;27.30;;;12.70;99.90;;;;;;5082511;28;20419;-59
2023/05/11 00:26:18;;;;;;;43.03;27.05;;;12.60;99.90;;;;;;5081423;28;20411;-58
2023/05/11 00:28:46;;;;;;;43.77;26.27;;;12.60;99.90;;;;;;5074512;28;20414;-59
2023/05/11 00:31:13;;;;;;;40.60;25.33;;;12.70;99.90;;;;;;5082878;28;20413;-58
2023/05/11 00:33:39;;;;;;;37.30;24.63;;;12.60;99.90;;;;;;5081295;28;20407;-59
2023/05/11 00:36:07;;;;;;;39.28;24.33;;;12.70;99.90;;;;;;5082861;28;20463;-59
2023/05/11 00:38:35;;;;;;;41.92;25.80;;;12.70;99.90;;;;;;5080719;28;20488;-59
2023/05/11 00:41:02;;;;;;;38.15;25.08;;;12.70;99.90;;;;;;5075760;28;20446;-59
2023/05/11 00:43:28;;;;;;;38.30;24.67;;;12.70;99.90;;;;;;5081601;28;20415;-60
2023/05/11 00:45:56;;;;;;;41.28;26.13;;;12.80;99.90;;;;;;5083070;28;20491;-58
2023/05/11 00:48:23;;;;;;;41.10;25.63;;;12.80;99.90;;;;;;5082382;28;20884;-59
2023/05/11 00:50:50;;;;;;;47.42;27.55;;;12.80;99.90;;;;;;5081943;28;20419;-59
2023/05/11 00:53:17;;;;;;;52.20;28.88;;;12.60;99.90;;;;;;5081918;28;20491;-58
2023/05/11 00:55:44;;;;;;;48.92;28.73;;;12.50;99.90;;;;;;5085183;28;20402;-58
2023/05/11 00:58:10;;;;;;;50.92;29.60;;;12.40;99.90;;;;;;5082903;28;20775;-59
2023/05/11 01:00:37;;;;;;;49.37;29.40;;;12.50;99.90;;;;;;5081891;28;20410;-57
2023/05/11 01:03:06;;;;;;;47.17;28.00;;;12.60;99.90;;;;;;5078747;28;20415;-59
2023/05/11 01:05:45;;;;;;;48.55;28.77;;;12.60;99.90;;;;;;5082322;28;20945;-59
2023/05/11 01:08:17;;;;;;;47.45;28.60;;;12.50;99.90;;;;;;5080657;28;20412;-58
2023/05/11 01:10:48;;;;;;;48.77;29.17;;;12.40;99.90;;;;;;5079721;28;20469;-59
2023/05/11 01:13:31;;;;;;;49.75;28.95;;;12.50;99.90;;;;;;5078673;28;20414;-58
2023/05/11 01:15:58;;;;;;;47.90;29.10;;;12.60;99.90;;;;;;5078260;28;20395;-58
2023/05/11 01:18:32;;;;;;;48.95;28.85;;;12.50;99.90;;;;;;5080166;28;20899;-58
2023/05/11 01:21:01;;;;;;;49.08;28.02;;;12.60;99.90;;;;;;5072872;28;20412;-58
2023/05/11 01:23:54;;;;;;;47.20;28.10;;;12.40;99.90;;;;;;5077404;28;20414;-58
2023/05/11 01:26:38;;;;;;;50.15;28.80;;;12.50;99.90;;;;;;5077295;28;20423;-58
2023/05/11 01:29:24;;;;;;;53.20;29.60;;;12.40;99.90;;;;;;5081232;28;20415;-58
2023/05/11 01:31:55;;;;;;;48.53;28.63;;;12.50;99.90;;;;;;5077587;28;20433;-59
2023/05/11 01:34:24;;;;;;;47.13;28.20;;;12.50;99.90;;;;;;5079189;28;20407;-58
2023/05/11 01:36:54;;;;;;;48.50;28.77;;;12.50;99.90;;;;;;5081106;28;20406;-58
2023/05/11 01:39:28;;;;;;;52.33;29.63;;;12.60;99.90;;;;;;5082664;28;20459;-58
2023/05/11 01:41:55;;;;;;;49.40;29.00;;;12.50;99.90;;;;;;5079031;28;20414;-59
2023/05/11 01:44:25;;;;;;;48.08;28.88;;;12.60;99.90;;;;;;5078204;28;20419;-59
2023/05/11 01:46:54;;;;;;;48.67;28.98;;;12.70;99.90;;;;;;5079240;28;20409;-58
2023/05/11 01:49:21;;;;;;;52.65;28.70;;;12.70;99.90;;;;;;5083061;28;20435;-56
2023/05/11 01:51:51;;;;;;;47.43;28.30;;;12.70;99.90;;;;;;5080854;28;20469;-60
2023/05/11 01:54:20;;;;;;;50.72;29.75;;;12.80;99.90;;;;;;5078485;28;20889;-59
2023/05/11 01:56:48;;;;;;;47.08;28.55;;;12.80;99.90;;;;;;5080581;28;20418;-57
2023/05/11 01:59:17;;;;;;;49.30;28.95;;;12.80;99.90;;;;;;5081418;28;20409;-57
2023/05/11 02:01:45;;;;;;;51.15;29.40;;;12.80;99.90;;;;;;5080581;28;20419;-56
2023/05/11 02:04:14;;;;;;;47.47;28.90;;;12.70;99.90;;;;;;5079516;28;20465;-57
2023/05/11 02:06:42;;;;;;;57.05;31.65;;;12.70;99.90;;;;;;5074160;28;20477;-57
2023/05/11 02:09:11;;;;;;;53.53;31.40;;;12.60;99.90;;;;;;5081961;28;20463;-57
2023/05/11 02:11:41;;;;;;;55.80;31.43;;;12.60;99.90;;;;;;5076437;28;20407;-58
2023/05/11 02:14:09;;;;;;;56.40;31.15;;;12.60;99.90;;;;;;5078489;28;20427;-56
2023/05/11 02:16:36;;;;;;;60.70;31.37;;;12.50;99.90;;;;;;5075431;28;20536;-56
2023/05/11 02:19:03;;;;;;;59.85;31.25;;;12.50;99.90;;;;;;5079874;28;20461;-55
2023/05/11 02:21:32;;;;;;;58.75;33.00;;;12.40;99.90;;;;;;5079162;28;20469;-56
2023/05/11 02:24:01;;;;;;;61.08;31.17;;;12.40;99.90;;;;;;5077214;28;20915;-58
2023/05/11 02:26:27;;;;;;;61.67;33.72;;;12.40;99.90;;;;;;5081605;28;20418;-59
2023/05/11 02:28:54;;;;;;;55.13;30.33;;;12.40;99.90;;;;;;5080066;28;20411;-58
2023/05/11 02:31:27;;;;;;;57.30;31.45;;;12.50;99.90;;;;;;5079667;28;20417;-58
2023/05/11 02:33:58;;;;;;;53.85;31.60;;;12.60;99.90;;;;;;5073010;28;20469;-57
2023/05/11 02:36:28;;;;;;;55.15;31.58;;;12.60;99.90;;;;;;5076579;28;20419;-57
2023/05/11 02:39:07;;;;;;;58.40;31.63;;;12.60;99.90;;;;;;5080652;28;20459;-56
2023/05/11 02:41:38;;;;;;;56.30;31.45;;;12.60;99.90;;;;;;5076169;28;20945;-56
2023/05/11 02:44:08;;;;;;;54.42;31.35;;;12.70;99.90;;;;;;5079162;28;20822;-55
2023/05/11 02:46:38;;;;;;;62.15;32.85;;;12.70;99.90;;;;;;5073438;28;20443;-60
2023/05/11 02:49:08;;;;;;;58.08;32.70;;;12.70;99.90;;;;;;5081246;28;20406;-60
2023/05/11 02:51:37;;;;;;;54.92;32.45;;;12.60;99.90;;;;;;5080900;28;20407;-58
2023/05/11 02:54:06;;;;;;;59.35;31.25;;;12.70;99.90;;;;;;5079183;28;20466;-60
2023/05/11 02:56:33;;;;;;;53.72;31.50;;;12.70;99.90;;;;;;5080363;28;20920;-59
2023/05/11 02:59:00;;;;;;;53.72;31.45;;;12.70;99.90;;;;;;5074378;28;20415;-60
2023/05/11 03:01:28;;;;;;;55.97;32.13;;;12.70;99.90;;;;;;5075266;28;20874;-58
2023/05/11 03:03:56;;;;;;;54.35;31.50;;;12.70;99.90;;;;;;5081015;28;20441;-59
2023/05/11 03:06:22;;;;;;;50.97;30.43;;;12.70;99.90;;;;;;5078698;28;20923;-58
2023/05/11 03:08:49;;;;;;;50.40;30.75;;;12.70;99.90;;;;;;5079518;28;20410;-59
2023/05/11 03:11:17;;;;;;;47.90;30.17;;;12.70;99.90;;;;;;5077821;28;20407;-58
2023/05/11 03:13:46;;;;;;;49.28;30.05;;;12.60;99.90;;;;;;5080186;28;21385;-58
2023/05/11 03:16:14;;;;;;;54.70;32.33;;;12.60;99.90;;;;;;5081107;28;20405;-58
2023/05/11 03:18:41;;;;;;;51.78;31.02;;;12.50;99.90;;;;;;5075063;28;20407;-58
2023/05/11 03:21:08;;;;;;;57.72;32.78;;;12.50;99.90;;;;;;5075657;28;20423;-58
2023/05/11 03:23:36;;;;;;;60.03;33.67;;;12.60;99.90;;;;;;5082030;28;20413;-59
2023/05/11 03:26:04;;;;;;;63.60;34.50;;;12.50;99.90;;;;;;5080653;28;20417;-60
2023/05/11 03:28:32;;;;;;;66.07;35.77;;;12.40;99.90;;;;;;5082120;28;21345;-59
2023/05/11 03:30:59;;;;;;;74.13;37.47;;;12.30;99.90;;;;;;5083141;28;20484;-60
2023/05/11 03:33:26;;;;;;;75.15;38.25;;;12.20;99.90;;;;;;5082468;28;20411;-59
2023/05/11 03:35:53;;;;;;;66.25;36.88;;;12.10;99.90;;;;;;5084794;28;20440;-60
2023/05/11 03:38:23;;;;;;;62.15;36.15;;;12.30;99.90;;;;;;5080135;28;20477;-59
2023/05/11 03:40:53;;;;;;;62.58;36.13;;;12.40;99.90;;;;;;5080535;28;20830;-60
2023/05/11 03:43:20;;;;;;;62.92;36.05;;;12.40;99.90;;;;;;5084101;28;20509;-58
2023/05/11 03:45:50;;;;;;;67.65;38.53;;;12.50;99.90;;;;;;5081558;28;20423;-60
2023/05/11 03:48:19;;;;;;;71.85;38.47;;;12.40;99.90;;;;;;5080007;28;20418;-60
2023/05/11 03:50:46;;;;;;;73.43;39.67;;;12.40;99.90;;;;;;5084919;28;20415;-60
2023/05/11 03:53:13;;;;;;;67.80;39.97;;;12.40;99.90;;;;;;5085164;28;20473;-60
2023/05/11 03:55:40;;;;;;;62.60;38.77;;;12.50;99.90;;;;;;5082236;28;20494;-59
2023/05/11 03:58:07;;;;;;;65.50;37.88;;;12.50;99.90;;;;;;5082584;28;20415;-59
2023/05/11 04:00:38;;;;;;;58.38;36.80;;;12.60;99.90;;;;;;5078335;28;20477;-60
2023/05/11 04:03:06;;;;;;;61.33;35.72;;;12.70;99.90;;;;;;5078872;28;20430;-59
2023/05/11 04:05:33;;;;;;;55.63;35.97;;;12.70;99.90;;;;;;5082117;28;20757;-59
2023/05/11 04:08:00;;;;;;;60.60;38.00;;;12.70;99.90;;;;;;5077475;28;20415;-56
2023/05/11 04:10:27;;;;;;;65.05;38.22;;;12.80;99.90;;;;;;5077083;28;20426;-57
2023/05/11 04:12:54;;;;;;;65.97;37.63;;;12.70;99.90;;;;;;5080373;28;20424;-57
2023/05/11 04:15:20;;;;;;;56.47;35.92;;;12.70;99.90;;;;;;5083842;28;20397;-59
2023/05/11 04:17:47;;;;;;;64.40;38.22;;;12.80;99.90;;;;;;5083059;28;20927;-59
2023/05/11 04:20:15;;;;;;;62.33;35.60;;;12.80;99.90;;;;;;5081057;28;20411;-58
2023/05/11 04:22:42;;;;;;;61.13;37.72;;;12.80;99.90;;;;;;5078753;28;20910;-59
2023/05/11 04:25:09;;;;;;;60.53;37.38;;;12.80;99.90;;;;;;5083886;28;20460;-59
2023/05/11 04:27:36;;;;;;;63.25;36.55;;;12.80;99.90;;;;;;5083410;28;20455;-59
2023/05/11 04:30:03;;;;;;;60.22;35.45;;;12.90;99.90;;;;;;5082228;28;20418;-59
2023/05/11 04:32:29;;;;;;;59.15;36.28;;;12.90;99.90;;;;;;5081048;28;20442;-58
2023/05/11 04:34:56;;;;;;;57.35;35.50;;;12.90;99.90;;;;;;5077629;28;20418;-58
2023/05/11 04:37:24;;;;;;;57.60;35.85;;;12.90;99.90;;;;;;5082638;28;20471;-58
2023/05/11 04:39:50;;;;;;;63.13;36.80;;;12.80;99.90;;;;;;5081808;28;20416;-57
2023/05/11 04:42:17;;;;;;;62.15;37.33;;;12.80;99.90;;;;;;5080437;28;20419;-58
2023/05/11 04:44:44;;;;;;;61.00;35.55;;;12.80;99.90;;;;;;5083222;28;20502;-58
2023/05/11 04:47:10;;;;;;;61.27;35.57;;;12.60;99.90;;;;;;5079417;28;20481;-58
2023/05/11 04:49:38;;;;;;;59.95;34.95;;;12.60;99.90;;;;;;5083271;28;20414;-58
2023/05/11 04:52:05;;;;;;;57.60;34.28;;;12.70;99.90;;;;;;5081638;28;20915;-58
2023/05/11 04:54:33;;;;;;;54.75;34.33;;;12.70;99.90;;;;;;5080620;28;20821;-58
2023/05/11 04:56:59;;;;;;;57.85;34.50;;;12.80;99.90;;;;;;5076325;28;20815;-59
2023/05/11 04:59:26;;;;;;;52.55;33.08;;;12.70;99.90;;;;;;5076496;28;20471;-57
2023/05/11 05:01:52;;;;;;;52.65;32.63;;;12.80;99.90;;;;;;5079900;28;20412;-59
2023/05/11 05:04:19;;;;;;;52.60;33.72;;;12.80;99.90;;;;;;5082395;28;20422;-58
2023/05/11 05:06:46;;;;;;;47.30;32.33;;;12.90;99.90;;;;;;5082784;28;20535;-59
2023/05/11 05:09:13;;;;;;;50.78;31.77;;;13.00;99.90;;;;;;5078236;28;20837;-58
2023/05/11 05:11:41;;;;;;;52.15;31.95;;;13.00;99.90;;;;;;5081573;28;20469;-58
2023/05/11 05:14:07;;;;;;;49.42;32.60;;;13.00;99.90;;;;;;5080568;28;20418;-59
2023/05/11 05:16:34;;;;;;;51.40;32.35;;;13.10;99.90;;;;;;5081571;28;20475;-58
2023/05/11 05:19:01;;;;;;;50.08;33.20;;;13.10;99.90;;;;;;5078865;28;20475;-58
2023/05/11 05:21:27;;;;;;;49.25;32.35;;;13.20;99.90;;;;;;5079687;28;20412;-58
2023/05/11 05:23:54;;;;;;;47.42;31.88;;;13.20;99.90;;;;;;5081351;28;20886;-59
2023/05/11 05:26:21;;;;;;;50.67;31.97;;;13.30;99.90;;;;;;5081854;28;20475;-61
2023/05/11 05:28:49;;;;;;;51.38;33.47;;;13.30;99.90;;;;;;5077422;28;20455;-61
2023/05/11 05:31:16;;;;;;;50.97;32.38;;;13.20;99.90;;;;;;5082346;28;20828;-61
2023/05/11 05:33:42;;;;;;;48.15;32.08;;;13.20;99.90;;;;;;5081988;28;20493;-60
2023/05/11 05:36:09;;;;;;;46.60;30.65;;;13.20;99.90;;;;;;5081314;28;20414;-61
2023/05/11 05:38:36;;;;;;;49.30;32.57;;;13.20;99.90;;;;;;5077994;28;20486;-59
2023/05/11 05:41:02;;;;;;;51.58;31.90;;;13.10;99.90;;;;;;5080719;28;20810;-60
2023/05/11 05:43:29;;;;;;;49.35;31.98;;;13.20;99.90;;;;;;5079579;28;20419;-61
2023/05/11 05:45:57;;;;;;;50.38;32.85;;;13.20;99.90;;;;;;5080215;28;20525;-61
2023/05/11 05:48:23;;;;;;;50.60;31.55;;;13.30;99.90;;;;;;5077214;28;20418;-60
2023/05/11 05:50:50;;;;;;;49.57;31.77;;;13.30;99.90;;;;;;5079501;28;20529;-62
2023/05/11 05:53:17;;;;;;;46.17;30.38;;;13.30;99.90;;;;;;5081165;28;20903;-61
2023/05/11 05:55:44;;;;;;;48.45;31.27;;;13.30;99.90;;;;;;5068870;28;20525;-60
2023/05/11 05:58:11;;;;;;;47.42;31.30;;;13.30;99.90;;;;;;5078240;28;20411;-60
2023/05/11 06:00:37;;;;;;;46.58;31.38;;;13.30;99.90;;;;;;5074198;28;20426;-61
2023/05/11 06:03:05;;;;;;;48.10;30.77;;;13.30;99.90;;;;;;5078644;28;20961;-60
2023/05/11 06:05:32;;;;;;;47.95;31.25;;;13.40;99.90;;;;;;5080057;28;20410;-61
2023/05/11 06:07:59;;;;;;;50.20;31.65;;;13.40;99.90;;;;;;5078779;28;20489;-59
2023/05/11 06:10:26;;;;;;;48.83;30.90;;;13.50;99.90;;;;;;5070204;28;20473;-59
2023/05/11 06:12:53;;;;;;;46.17;30.88;;;13.50;99.90;;;;;;5077334;28;20449;-61
2023/05/11 06:15:20;;;;;;;43.72;29.92;;;13.60;99.90;;;;;;5080956;28;20410;-61
2023/05/11 06:17:47;;;;;;;48.47;30.95;;;13.70;99.90;;;;;;5077987;28;20836;-61
2023/05/11 06:20:15;;;;;;;46.60;31.95;;;13.70;99.90;;;;;;5078595;28;20459;-62
2023/05/11 06:22:42;;;;;;;51.03;32.40;;;13.70;99.90;;;;;;5073972;28;20410;-60
2023/05/11 06:25:09;;;;;;;47.50;30.33;;;13.60;99.90;;;;;;5069695;28;20836;-61
2023/05/11 06:27:35;;;;;;;46.65;30.33;;;13.60;99.90;;;;;;5080117;28;20438;-60
2023/05/11 06:30:02;;;;;;;47.53;30.20;;;13.70;99.90;;;;;;5079375;28;20417;-61
2023/05/11 06:32:29;;;;;;;44.55;29.50;;;13.70;99.90;;;;;;5078710;28;20415;-59
2023/05/11 06:34:55;;;;;;;46.05;28.88;;;13.80;99.90;;;;;;5079111;28;20407;-60
2023/05/11 06:37:23;;;;;;;45.63;28.93;;;13.90;99.90;;;;;;5078700;28;20497;-60
2023/05/11 06:39:50;;;;;;;46.75;29.20;;;14.00;99.90;;;;;;5076408;28;20786;-59
2023/05/11 06:42:16;;;;;;;45.50;27.85;;;14.00;99.90;;;;;;5079727;28;20423;-59
2023/05/11 06:44:43;;;;;;;41.35;27.45;;;14.10;99.90;;;;;;5078429;28;20493;-58
2023/05/11 06:47:10;;;;;;;40.92;27.23;;;14.20;99.90;;;;;;5076989;28;20424;-58
2023/05/11 06:49:36;;;;;;;41.80;27.67;;;14.30;99.90;;;;;;5077215;28;20506;-60
2023/05/11 06:52:03;;;;;;;40.63;27.33;;;14.40;99.90;;;;;;5077088;28;20422;-60
2023/05/11 06:54:31;;;;;;;38.17;26.23;;;14.40;99.90;;;;;;5079644;28;20467;-60
2023/05/11 06:56:58;;;;;;;38.10;25.53;;;14.50;99.90;;;;;;5075280;28;20516;-60
2023/05/11 06:59:24;;;;;;;37.25;25.85;;;14.50;99.90;;;;;;5080033;28;20414;-61
2023/05/11 07:01:51;;;;;;;38.13;24.60;;;14.60;99.90;;;;;;5080630;28;20504;-61
2023/05/11 07:04:18;;;;;;;39.38;26.80;;;14.70;99.90;;;;;;5082050;28;20461;-61
2023/05/11 07:06:44;;;;;;;40.33;25.52;;;14.70;99.90;;;;;;5083189;28;20426;-60
2023/05/11 07:09:11;;;;;;;40.78;25.67;;;14.80;99.90;;;;;;5085135;28;20813;-60
2023/05/11 07:11:39;;;;;;;45.17;26.07;;;15.00;99.90;;;;;;5078292;28;20419;-59
2023/05/11 07:14:07;;;;;;;46.60;28.15;;;14.90;99.90;;;;;;5081387;28;20421;-60
2023/05/11 07:16:36;;;;;;;41.80;25.83;;;14.80;99.90;;;;;;5081508;28;20415;-62
2023/05/11 07:19:03;;;;;;;48.00;28.25;;;14.70;99.90;;;;;;5079434;28;20411;-62
2023/05/11 07:21:30;;;;;;;82.55;33.42;;;14.70;99.90;;;;;;5084147;28;20470;-59
2023/05/11 07:23:58;;;;;;;67.13;29.27;;;14.60;99.90;;;;;;5079180;28;20425;-59
2023/05/11 07:26:24;;;;;;;41.03;25.33;;;14.90;99.90;;;;;;5081141;28;20916;-59
2023/05/11 07:28:52;;;;;;;35.53;23.27;;;15.20;99.90;;;;;;5087035;28;20414;-59
2023/05/11 07:31:19;;;;;;;31.08;20.42;;;15.30;99.90;;;;;;5082513;28;20939;-58
2023/05/11 07:33:46;;;;;;;29.48;19.55;;;15.50;99.90;;;;;;5075319;28;20945;-59
2023/05/11 07:36:13;;;;;;;30.13;20.90;;;15.60;99.90;;;;;;5078988;28;20621;-58
2023/05/11 07:38:39;;;;;;;31.83;21.38;;;15.70;99.90;;;;;;5081819;28;20410;-60
2023/05/11 07:41:06;;;;;;;29.85;20.20;;;15.70;99.90;;;;;;5084030;28;20410;-59
2023/05/11 07:43:33;;;;;;;28.52;20.05;;;15.70;99.90;;;;;;5083482;28;20405;-61
2023/05/11 07:46:01;;;;;;;29.15;20.83;;;15.60;99.90;;;;;;5076299;28;20476;-61
2023/05/11 07:48:27;;;;;;;30.47;20.80;;;15.70;99.90;;;;;;5081958;28;20417;-61
2023/05/11 07:50:54;;;;;;;30.15;20.48;;;15.50;99.90;;;;;;5079391;28;20414;-61
2023/05/11 07:53:20;;;;;;;32.22;20.67;;;15.60;99.90;;;;;;5082618;28;20417;-62
2023/05/11 07:55:47;;;;;;;29.77;20.58;;;15.70;99.90;;;;;;5082546;28;20467;-62
2023/05/11 07:58:14;;;;;;;28.15;20.00;;;15.80;99.90;;;;;;5079302;28;20414;-61
2023/05/11 08:00:41;;;;;;;28.45;20.58;;;15.90;99.90;;;;;;5080162;28;20463;-59
2023/05/11 08:03:09;;;;;;;30.42;20.55;;;15.90;99.90;;;;;;5083485;28;20477;-59
2023/05/11 08:05:36;;;;;;;31.38;22.50;;;15.90;99.90;;;;;;5081161;28;20496;-60
2023/05/11 08:08:03;;;;;;;30.55;21.55;;;16.00;99.90;;;;;;5079456;28;20488;-60
2023/05/11 08:10:30;;;;;;;29.75;20.67;;;16.10;99.90;;;;;;5076892;28;20408;-63
2023/05/11 08:12:57;;;;;;;26.13;20.03;;;16.30;99.90;;;;;;5077428;28;20781;-61
2023/05/11 08:15:23;;;;;;;24.92;18.90;;;16.60;99.90;;;;;;5082947;28;20897;-61
2023/05/11 08:17:50;;;;;;;24.88;17.88;;;16.80;99.90;;;;;;5081324;28;20457;-60
2023/05/11 08:20:18;;;;;;;24.38;17.42;;;16.80;1.00;;;;;;5080338;28;20818;-59
2023/05/11 08:22:45;;;;;;;22.95;17.00;;;16.90;3.90;;;;;;5064064;28;20415;-61
2023/05/11 08:25:12;;;;;;;20.60;16.13;;;16.80;3.30;;;;;;5074279;28;20452;-59
2023/05/11 08:28:00;;;;;;;21.98;16.42;;;16.60;1.90;;;;;;5081142;28;20425;-60
2023/05/11 08:30:27;;;;;;;23.10;16.52;;;16.40;40.50;;;;;;5074740;28;20526;-58
2023/05/11 08:32:53;;;;;;;21.00;16.55;;;16.30;29.10;;;;;;5078119;28;20421;-65
2023/05/11 08:35:22;;;;;;;19.98;15.65;;;16.20;58.60;;;;;;5082536;28;20409;-60
2023/05/11 08:37:49;;;;;;;19.55;14.80;;;16.20;36.40;;;;;;5081141;28;20459;-60
2023/05/11 08:40:18;;;;;;;18.37;14.13;;;16.30;54.10;;;;;;5081099;28;20533;-63
2023/05/11 08:42:47;;;;;;;20.07;14.03;;;16.30;23.30;;;;;;5082289;28;20405;-61
2023/05/11 08:45:15;;;;;;;19.25;14.75;;;16.30;8.80;;;;;;5077747;28;20916;-61
2023/05/11 08:47:42;;;;;;;18.13;13.98;;;16.50;1.60;;;;;;5081622;28;20508;-63
2023/05/11 08:50:09;;;;;;;21.45;15.52;;;16.50;1.00;;;;;;5079333;28;20472;-62
2023/05/11 08:52:37;;;;;;;19.20;15.60;;;16.50;1.00;;;;;;5079552;28;20417;-62
2023/05/11 08:55:04;;;;;;;21.63;17.10;;;16.70;40.70;;;;;;5081020;28;20795;-62
2023/05/11 08:57:31;;;;;;;21.70;16.70;;;16.80;31.40;;;;;;5079892;28;20406;-62
2023/05/11 08:59:59;;;;;;;21.58;16.25;;;16.90;1.00;;;;;;5080381;28;20502;-61
2023/05/11 09:02:26;;;;;;;23.00;17.23;;;17.10;1.00;;;;;;5080279;28;20492;-62
2023/05/11 09:04:54;;;;;;;21.73;16.65;;;17.00;1.00;;;;;;5075953;28;20438;-61
2023/05/11 09:07:24;;;;;;;20.70;15.45;;;17.10;1.00;;;;;;5080212;28;20420;-62
2023/05/11 09:09:52;;;;;;;20.50;15.85;;;17.20;1.00;;;;;;5075169;28;20426;-63
2023/05/11 09:12:19;;;;;;;18.48;14.23;;;17.60;1.00;;;;;;5079986;28;20414;-61
2023/05/11 09:14:46;;;;;;;20.67;15.17;;;17.80;99.90;;;;;;5079968;28;20443;-61
2023/05/11 09:17:13;;;;;;;20.20;15.38;;;17.90;99.90;;;;;;5080759;28;20429;-61
2023/05/11 09:19:57;;;;;;;20.63;16.67;;;17.80;99.90;;;;;;5081974;28;20417;-61
2023/05/11 09:22:24;;;;;;;20.92;16.60;;;17.90;99.90;;;;;;5066599;28;20897;-61
2023/05/11 09:24:52;;;;;;;19.67;15.75;;;17.80;99.90;;;;;;5079797;28;20473;-63
2023/05/11 09:27:19;;;;;;;20.75;16.10;;;17.80;1.00;;;;;;5078952;28;20423;-64
2023/05/11 09:29:46;;;;;;;20.85;17.27;;;17.70;1.00;;;;;;5081769;28;20420;-64
2023/05/11 09:32:13;;;;;;;22.75;18.23;;;17.50;1.00;;;;;;5077737;28;20411;-63
2023/05/11 09:34:40;;;;;;;22.20;16.75;;;17.20;99.90;;;;;;5077147;28;20415;-64
2023/05/11 09:37:17;;;;;;;20.67;15.70;;;17.30;99.90;;;;;;5080646;28;20874;-63
2023/05/11 09:39:43;;;;;;;19.13;15.52;;;17.30;98.70;;;;;;5081747;28;20421;-64
2023/05/11 09:42:16;;;;;;;19.70;15.82;;;17.40;99.90;;;;;;5080194;28;20469;-63
2023/05/11 09:44:43;;;;;;;20.48;16.33;;;17.40;99.90;;;;;;5081688;28;20421;-65
2023/05/11 09:47:12;;;;;;;20.27;16.08;;;17.00;99.90;;;;;;5080244;28;20423;-61
2023/05/11 09:49:39;;;;;;;22.05;17.60;;;17.10;99.90;;;;;;5078383;28;20411;-61
2023/05/11 09:52:06;;;;;;;21.20;17.85;;;17.10;15.60;;;;;;5078561;28;20430;-61
2023/05/11 09:54:41;;;;;;;20.25;15.60;;;17.20;99.90;;;;;;5077099;28;20792;-63
2023/05/11 09:57:21;;;;;;;18.00;15.23;;;17.30;99.90;;;;;;5078298;28;20400;-61
2023/05/11 09:59:49;;;;;;;20.75;15.98;;;17.40;87.20;;;;;;5076166;28;20411;-60
2023/05/11 10:02:21;;;;;;;21.70;15.88;;;17.30;99.90;;;;;;5076482;28;20415;-64
2023/05/11 10:04:48;;;;;;;19.88;16.17;;;17.20;99.90;;;;;;5077336;28;21032;-64
2023/05/11 10:07:29;;;;;;;19.80;15.60;;;17.20;99.90;;;;;;5073146;28;20430;-65
2023/05/11 10:09:57;;;;;;;19.98;17.00;;;17.10;37.20;;;;;;5074762;28;20473;-65
2023/05/11 10:12:26;;;;;;;19.75;16.38;;;16.90;99.90;;;;;;5078975;28;20475;-62
2023/05/11 10:14:55;;;;;;;21.67;16.63;;;16.70;1.00;;;;;;5080357;28;20505;-64
2023/05/11 10:17:22;;;;;;;22.23;17.00;;;16.50;1.00;;;;;;5080617;28;20456;-63
2023/05/11 10:19:50;;;;;;;21.52;18.10;;;16.50;1.00;;;;;;5077255;28;20419;-64
2023/05/11 10:22:17;;;;;;;21.48;16.20;;;16.60;1.00;;;;;;5076909;28;20427;-68
2023/05/11 10:24:44;;;;;;;23.17;17.95;;;16.70;1.00;;;;;;5077514;28;20835;-67
2023/05/11 10:27:11;;;;;;;25.08;19.70;;;16.60;99.90;;;;;;5080003;28;20490;-67
2023/05/11 10:29:38;;;;;;;31.57;22.67;;;16.20;99.90;;;;;;5075718;28;20506;-67
2023/05/11 10:32:07;;;;;;;29.00;22.38;;;16.20;1.00;;;;;;5073433;28;20413;-67
2023/05/11 10:34:34;;;;;;;29.55;21.00;;;16.20;33.30;;;;;;5078176;28;20440;-67
2023/05/11 10:37:01;;;;;;;27.70;20.83;;;16.00;1.00;;;;;;5077030;28;20415;-69
2023/05/11 10:39:29;;;;;;;31.58;22.55;;;16.10;99.90;;;;;;5078336;28;20452;-66
2023/05/11 10:42:06;;;;;;;31.30;22.52;;;15.90;99.90;;;;;;5080425;28;20421;-67
2023/05/11 10:44:50;;;;;;;34.83;23.90;;;16.00;99.90;;;;;;5075712;28;20518;-67
2023/05/11 10:47:42;;;;;;;35.77;24.27;;;16.00;1.00;;;;;;5072184;28;20504;-67
2023/05/11 10:50:25;;;;;;;36.55;25.27;;;16.00;99.90;;;;;;5018568;28;20450;-67
2023/05/11 10:53:25;;;;;;;37.47;26.00;;;16.90;99.90;;;;;;5077072;28;20509;-69
2023/05/11 10:56:12;;;;;;;35.00;23.97;;;15.90;89.20;;;;;;5065208;28;20553;-66
2023/05/11 10:58:57;;;;;;;35.25;23.08;;;15.80;1.00;;;;;;5074863;28;20454;-65
2023/05/11 11:01:36;;;;;;;38.50;23.67;;;15.70;1.00;;;;;;5071855;28;20818;-69
2023/05/11 11:04:05;;;;;;;30.83;21.13;;;15.90;1.00;;;;;;5076850;28;20418;-64
2023/05/11 11:06:33;;;;;;;26.35;18.88;;;16.10;1.00;;;;;;5077278;28;20518;-65
2023/05/11 11:09:03;;;;;;;23.10;16.57;;;16.10;99.90;;;;;;5075773;28;20884;-67
2023/05/11 11:11:31;;;;;;;19.48;14.93;;;16.00;56.60;;;;;;5080454;28;20466;-66
2023/05/11 11:14:01;;;;;;;18.85;14.30;;;15.70;85.30;;;;;;5072997;28;20471;-66
2023/05/11 11:16:28;;;;;;;23.58;16.70;;;15.70;99.90;;;;;;5078909;28;20422;-67
2023/05/11 11:19:28;;;;;;;22.35;17.58;;;15.50;99.90;;;;;;5078809;28;20414;-68
2023/05/11 11:21:56;;;;;;;23.87;19.50;;;15.50;47.50;;;;;;5077055;28;20544;-67
2023/05/11 11:24:43;;;;;;;28.33;21.20;;;15.70;1.00;;;;;;5075506;28;20414;-68
2023/05/11 11:27:09;;;;;;;32.30;24.17;;;15.70;84.20;;;;;;5075789;28;20419;-61
2023/05/11 11:29:37;;;;;;;29.02;22.63;;;15.80;99.90;;;;;;5078825;28;20433;-63
2023/05/11 11:32:25;;;;;;;30.05;22.15;;;15.90;99.90;;;;;;5078125;28;20432;-65
2023/05/11 11:34:52;;;;;;;31.83;21.73;;;15.90;99.90;;;;;;5075405;28;20414;-62
2023/05/11 11:37:21;;;;;;;25.85;20.10;;;16.10;99.90;;;;;;5078323;28;21337;-64
2023/05/11 11:39:49;;;;;;;30.10;20.92;;;16.20;99.90;;;;;;5080402;28;20526;-62
2023/05/11 11:42:18;;;;;;;28.85;21.25;;;16.30;99.90;;;;;;5079004;28;20441;-63
2023/05/11 11:44:46;;;;;;;24.95;18.85;;;16.10;99.90;;;;;;5067878;28;20412;-63
2023/05/11 11:47:13;;;;;;;24.95;18.90;;;16.30;99.90;;;;;;5075588;28;20460;-64
2023/05/11 11:49:41;;;;;;;24.65;17.92;;;16.70;99.90;;;;;;5076164;28;20480;-63
2023/05/11 11:52:12;;;;;;;23.05;17.83;;;16.90;99.90;;;;;;5082310;28;20562;-62
2023/05/11 11:54:41;;;;;;;24.83;18.50;;;16.70;99.90;;;;;;5081533;28;20478;-60
2023/05/11 11:57:42;;;;;;;25.75;19.40;;;16.90;99.90;;;;;;5076915;28;20519;-63
2023/05/11 12:00:11;;;;;;;23.47;17.73;;;16.80;99.90;;;;;;5070052;28;20527;-61
2023/05/11 12:02:41;;;;;;;18.60;15.70;;;16.90;99.90;;;;;;5080747;28;20430;-60
2023/05/11 12:05:12;;;;;;;21.45;16.30;;;17.20;99.90;;;;;;5082065;28;20431;-63
2023/05/11 12:07:42;;;;;;;22.17;17.20;;;17.30;99.90;;;;;;5077002;28;20427;-62
2023/05/11 12:10:13;;;;;;;20.85;16.08;;;17.30;65.90;;;;;;5082155;28;20420;-64
2023/05/11 12:12:40;;;;;;;21.17;16.38;;;17.30;94.10;;;;;;5080563;28;20409;-63
2023/05/11 12:15:08;;;;;;;22.55;17.70;;;17.30;97.40;;;;;;5079430;28;20411;-63
2023/05/11 12:17:38;;;;;;;26.93;19.37;;;17.30;89.80;;;;;;5073064;28;20538;-63
2023/05/11 12:20:13;;;;;;;27.03;20.23;;;17.30;99.90;;;;;;5078141;28;20413;-62
2023/05/11 12:22:40;;;;;;;27.20;19.60;;;17.40;99.90;;;;;;5081079;28;20764;-63
2023/05/11 12:25:07;;;;;;;26.88;21.42;;;17.50;48.40;;;;;;5078012;28;20823;-64
2023/05/11 12:27:35;;;;;;;29.15;22.48;;;17.70;97.20;;;;;;5086404;28;20755;-63
2023/05/11 12:30:02;;;;;;;28.97;23.07;;;17.70;99.90;;;;;;5076376;28;20419;-62
2023/05/11 12:32:30;;;;;;;31.67;23.33;;;17.80;90.90;;;;;;5080493;28;20880;-62
2023/05/11 12:35:00;;;;;;;30.75;24.02;;;17.80;99.90;;;;;;5080382;28;20465;-62
2023/05/11 12:37:27;;;;;;;31.73;26.00;;;17.50;99.90;;;;;;5077119;28;20408;-60